Time,TemperatureF,DewpointF,PressureIn,WindDirection,WindDirectionDegrees,WindSpeedMPH,WindSpeedGustMPH,Humidity,HourlyPrecipIn,Conditions,Clouds,dailyrainin,SoftwareType,DateUTC
2013-04-07 00:12:00,55.2,48.0,29.69,SW,219,26.0,33.0,78,0.02,,,0.02,weatherlink.com 1.10,2013-04-07 05:12:00,
2013-04-07 00:27:00,54.8,48.0,29.68,SW,229,14.0,21.0,77,0.04,,,0.02,weatherlink.com 1.10,2013-04-07 05:27:00,
2013-04-07 00:42:00,55.8,47.0,29.67,SW,223,11.0,20.0,72,0.03,,,0.02,weatherlink.com 1.10,2013-04-07 05:42:00,
2013-04-07 00:57:00,55.5,47.0,29.67,SW,214,14.0,24.0,73,0.02,,,0.02,weatherlink.com 1.10,2013-04-07 05:57:00,
2013-04-07 03:03:00,52.2,46.0,29.70,WSW,253,9.0,18.0,80,0.00,,,0.02,weatherlink.com 1.10,2013-04-07 08:03:00,
2013-04-07 03:39:00,50.5,46.0,29.72,WNW,290,3.0,12.0,83,0.00,,,0.02,weatherlink.com 1.10,2013-04-07 08:39:00,
2013-04-07 04:29:00,49.9,45.0,29.74,WNW,300,7.0,15.0,84,0.00,,,0.02,weatherlink.com 1.10,2013-04-07 09:29:00,
2013-04-07 04:44:00,49.9,45.0,29.75,West,272,7.0,17.0,83,0.00,,,0.02,weatherlink.com 1.10,2013-04-07 09:44:00,
2013-04-07 04:59:00,49.7,46.0,29.76,West,276,8.0,16.0,87,0.00,,,0.02,weatherlink.com 1.10,2013-04-07 09:59:00,
2013-04-07 05:14:00,49.5,45.0,29.77,WSW,251,10.0,20.0,84,0.00,,,0.02,weatherlink.com 1.10,2013-04-07 10:14:00,
2013-04-07 05:44:00,49.1,44.0,29.78,WNW,291,4.0,13.0,82,0.00,,,0.02,weatherlink.com 1.10,2013-04-07 10:44:00,
2013-04-07 05:59:00,48.3,43.0,29.80,WSW,254,8.0,14.0,81,0.00,,,0.02,weatherlink.com 1.10,2013-04-07 10:59:00,
2013-04-07 06:14:00,47.2,42.0,29.81,West,277,6.0,14.0,81,0.00,,,0.02,weatherlink.com 1.10,2013-04-07 11:14:00,
2013-04-07 06:29:00,46.6,42.0,29.82,West,279,2.0,16.0,83,0.00,,,0.02,weatherlink.com 1.10,2013-04-07 11:29:00,
2013-04-07 06:44:00,46.8,42.0,29.83,WNW,290,4.0,13.0,82,0.00,,,0.02,weatherlink.com 1.10,2013-04-07 11:44:00,
2013-04-07 06:59:00,46.6,41.0,29.83,NW,309,8.0,13.0,82,0.00,,,0.02,weatherlink.com 1.10,2013-04-07 11:59:00,
2013-04-07 07:14:00,46.2,42.0,29.84,West,272,4.0,9.0,84,0.00,,,0.02,weatherlink.com 1.10,2013-04-07 12:14:00,
2013-04-07 07:29:00,46.0,41.0,29.86,WNW,286,4.0,10.0,84,0.00,,,0.02,weatherlink.com 1.10,2013-04-07 12:29:00,
2013-04-07 07:44:00,46.5,42.0,29.86,NNW,333,5.0,11.0,84,0.00,,,0.02,weatherlink.com 1.10,2013-04-07 12:44:00,
2013-04-07 07:59:00,47.9,43.0,29.86,West,278,7.0,10.0,83,0.00,,,0.02,weatherlink.com 1.10,2013-04-07 12:59:00,
2013-04-07 08:14:00,49.2,43.0,29.87,WNW,285,4.0,12.0,79,0.00,,,0.02,weatherlink.com 1.10,2013-04-07 13:14:00,
2013-04-07 08:29:00,48.5,42.0,29.87,NNW,329,14.0,14.0,79,0.00,,,0.02,weatherlink.com 1.10,2013-04-07 13:29:00,
2013-04-07 08:44:00,49.1,43.0,29.87,NW,318,4.0,20.0,78,0.00,,,0.02,weatherlink.com 1.10,2013-04-07 13:44:00,
2013-04-07 08:59:00,50.3,43.0,29.88,WNW,286,2.0,13.0,77,0.00,,,0.02,weatherlink.com 1.10,2013-04-07 13:59:00,
2013-04-07 09:14:00,50.7,43.0,29.88,SW,233,8.0,13.0,75,0.00,,,0.02,weatherlink.com 1.10,2013-04-07 14:14:00,
2013-04-07 09:29:00,51.6,44.0,29.88,WNW,292,10.0,14.0,75,0.00,,,0.02,weatherlink.com 1.10,2013-04-07 14:29:00,
2013-04-07 09:44:00,52.1,43.0,29.88,NNE,17,3.0,13.0,72,0.00,,,0.02,weatherlink.com 1.10,2013-04-07 14:44:00,
2013-04-07 09:59:00,53.1,43.0,29.89,NW,307,5.0,13.0,69,0.00,,,0.02,weatherlink.com 1.10,2013-04-07 14:59:00,
2013-04-07 10:14:00,54.6,44.0,29.89,WSW,242,3.0,11.0,68,0.00,,,0.02,weatherlink.com 1.10,2013-04-07 15:14:00,
2013-04-07 10:29:00,54.9,43.0,29.89,NNW,336,4.0,14.0,64,0.00,,,0.02,weatherlink.com 1.10,2013-04-07 15:29:00,
2013-04-07 10:44:00,55.8,43.0,29.90,WNW,295,7.0,13.0,62,0.00,,,0.02,weatherlink.com 1.10,2013-04-07 15:44:00,
2013-04-07 11:00:00,57.1,42.0,29.91,WSW,244,3.0,11.0,58,0.00,,,0.02,weatherlink.com 1.10,2013-04-07 16:00:00,
2013-04-07 11:15:00,57.8,42.0,29.91,WNW,290,1.0,10.0,57,0.00,,,0.02,weatherlink.com 1.10,2013-04-07 16:15:00,
2013-04-07 11:45:00,59.2,40.0,29.91,WSW,252,4.0,11.0,50,0.00,,,0.02,weatherlink.com 1.10,2013-04-07 16:45:00,
2013-04-07 12:00:00,60.9,39.0,29.90,West,265,7.0,12.0,45,0.00,,,0.02,weatherlink.com 1.10,2013-04-07 17:00:00,
2013-04-07 12:15:00,61.2,40.0,29.90,NNW,337,2.0,15.0,45,0.00,,,0.02,weatherlink.com 1.10,2013-04-07 17:15:00,
2013-04-07 12:30:00,61.9,38.0,29.90,WNW,287,7.0,12.0,42,0.00,,,0.02,weatherlink.com 1.10,2013-04-07 17:30:00,
2013-04-07 13:00:00,63.3,39.0,29.90,NNW,340,10.0,14.0,41,0.00,,,0.02,weatherlink.com 1.10,2013-04-07 18:00:00,
2013-04-07 13:15:00,63.4,39.0,29.91,NW,326,5.0,12.0,40,0.00,,,0.02,weatherlink.com 1.10,2013-04-07 18:15:00,
2013-04-07 13:30:00,63.4,39.0,29.90,WNW,285,4.0,14.0,40,0.00,,,0.02,weatherlink.com 1.10,2013-04-07 18:30:00,
2013-04-07 13:45:00,63.0,38.0,29.90,West,281,3.0,13.0,40,0.00,,,0.02,weatherlink.com 1.10,2013-04-07 18:45:00,
2013-04-07 14:00:00,63.7,38.0,29.90,West,273,4.0,12.0,39,0.00,,,0.02,weatherlink.com 1.10,2013-04-07 19:00:00,
2013-04-07 14:15:00,64.8,39.0,29.91,WSW,242,2.0,14.0,39,0.00,,,0.02,weatherlink.com 1.10,2013-04-07 19:15:00,
2013-04-07 14:30:00,65.2,39.0,29.90,WSW,250,8.0,15.0,38,0.00,,,0.02,weatherlink.com 1.10,2013-04-07 19:30:00,
2013-04-07 14:45:00,65.5,38.0,29.90,WSW,257,5.0,11.0,36,0.00,,,0.02,weatherlink.com 1.10,2013-04-07 19:45:00,
2013-04-07 15:00:00,64.3,38.0,29.90,WNW,298,1.0,10.0,38,0.00,,,0.02,weatherlink.com 1.10,2013-04-07 20:00:00,
2013-04-07 15:15:00,64.1,38.0,29.90,West,280,7.0,8.0,38,0.00,,,0.02,weatherlink.com 1.10,2013-04-07 20:15:00,
2013-04-07 15:30:00,64.0,38.0,29.90,WNW,288,2.0,9.0,38,0.00,,,0.02,weatherlink.com 1.10,2013-04-07 20:30:00,
2013-04-07 15:45:00,65.2,38.0,29.90,NW,314,2.0,6.0,37,0.00,,,0.02,weatherlink.com 1.10,2013-04-07 20:45:00,
2013-04-07 16:00:00,66.2,37.0,29.89,West,273,4.0,8.0,34,0.00,,,0.02,weatherlink.com 1.10,2013-04-07 21:00:00,
2013-04-07 16:15:00,66.4,36.0,29.90,WNW,288,2.0,6.0,33,0.00,,,0.02,weatherlink.com 1.10,2013-04-07 21:15:00,
2013-04-07 16:30:00,67.3,36.0,29.90,WSW,250,2.0,11.0,31,0.00,,,0.02,weatherlink.com 1.10,2013-04-07 21:30:00,
2013-04-07 16:45:00,67.0,36.0,29.90,North,5,0.0,9.0,32,0.00,,,0.02,weatherlink.com 1.10,2013-04-07 21:45:00,
2013-04-07 17:00:00,66.8,37.0,29.90,West,269,3.0,8.0,33,0.00,,,0.02,weatherlink.com 1.10,2013-04-07 22:00:00,
2013-04-07 17:15:00,67.1,36.0,29.90,West,262,2.0,7.0,32,0.00,,,0.02,weatherlink.com 1.10,2013-04-07 22:15:00,
2013-04-07 17:30:00,66.8,37.0,29.90,WNW,296,0.0,5.0,33,0.00,,,0.02,weatherlink.com 1.10,2013-04-07 22:30:00,
2013-04-07 17:45:00,66.8,37.0,29.90,NNE,18,1.0,7.0,33,0.00,,,0.02,weatherlink.com 1.10,2013-04-07 22:45:00,
2013-04-07 18:00:00,66.0,37.0,29.90,NE,53,1.0,3.0,34,0.00,,,0.02,weatherlink.com 1.10,2013-04-07 23:00:00,
2013-04-07 18:15:00,65.3,36.0,29.89,NNE,21,1.0,3.0,34,0.00,,,0.02,weatherlink.com 1.10,2013-04-07 23:15:00,
2013-04-07 18:30:00,64.7,36.0,29.89,NE,44,2.0,3.0,35,0.00,,,0.02,weatherlink.com 1.10,2013-04-07 23:30:00,
2013-04-07 18:45:00,63.9,37.0,29.89,NNE,22,1.0,3.0,37,0.00,,,0.02,weatherlink.com 1.10,2013-04-07 23:45:00,
2013-04-07 19:00:00,62.7,37.0,29.89,NNE,31,0.0,2.0,38,0.00,,,0.02,weatherlink.com 1.10,2013-04-08 00:00:00,
2013-04-07 19:15:00,60.4,39.0,29.89,NNE,28,3.0,6.0,46,0.00,,,0.02,weatherlink.com 1.10,2013-04-08 00:15:00,
2013-04-07 19:30:00,58.3,40.0,29.89,NNE,22,4.0,7.0,50,0.00,,,0.02,weatherlink.com 1.10,2013-04-08 00:30:00,
2013-04-07 19:45:00,56.3,40.0,29.90,NNE,19,2.0,7.0,54,0.00,,,0.02,weatherlink.com 1.10,2013-04-08 00:45:00,
2013-04-07 20:00:00,54.4,39.0,29.90,NE,37,3.0,5.0,57,0.00,,,0.02,weatherlink.com 1.10,2013-04-08 01:00:00,
2013-04-07 20:15:00,53.2,39.0,29.91,NE,45,4.0,8.0,59,0.00,,,0.02,weatherlink.com 1.10,2013-04-08 01:15:00,
2013-04-07 20:30:00,52.1,39.0,29.91,ENE,57,4.0,6.0,61,0.00,,,0.02,weatherlink.com 1.10,2013-04-08 01:30:00,
2013-04-07 20:45:00,51.5,39.0,29.91,NE,48,5.0,10.0,62,0.00,,,0.02,weatherlink.com 1.10,2013-04-08 01:45:00,
2013-04-07 21:00:00,50.8,38.0,29.91,ENE,68,3.0,9.0,62,0.00,,,0.02,weatherlink.com 1.10,2013-04-08 02:00:00,
2013-04-07 21:15:00,50.3,38.0,29.91,NE,51,5.0,8.0,63,0.00,,,0.02,weatherlink.com 1.10,2013-04-08 02:15:00,
2013-04-07 21:30:00,49.5,38.0,29.91,NE,51,3.0,7.0,65,0.00,,,0.02,weatherlink.com 1.10,2013-04-08 02:30:00,
2013-04-07 21:45:00,49.0,38.0,29.91,NE,46,3.0,6.0,66,0.00,,,0.02,weatherlink.com 1.10,2013-04-08 02:45:00,
2013-04-07 22:00:00,48.4,38.0,29.91,ENE,61,4.0,8.0,67,0.00,,,0.02,weatherlink.com 1.10,2013-04-08 03:00:00,
2013-04-07 22:30:00,47.0,38.0,29.91,ENE,63,4.0,8.0,70,0.00,,,0.02,weatherlink.com 1.10,2013-04-08 03:30:00,
2013-04-07 23:00:00,46.1,38.0,29.90,ENE,65,3.0,8.0,72,0.00,,,0.02,weatherlink.com 1.10,2013-04-08 04:00:00,
2013-04-07 23:16:00,45.1,37.0,29.89,ENE,69,5.0,8.0,74,0.00,,,0.02,weatherlink.com 1.10,2013-04-08 04:16:00,
2013-04-07 23:31:00,44.9,37.0,29.89,ENE,67,5.0,8.0,75,0.00,,,0.02,weatherlink.com 1.10,2013-04-08 04:31:00,
2013-04-07 23:46:00,45.3,38.0,29.89,ENE,74,5.0,9.0,75,0.00,,,0.02,weatherlink.com 1.10,2013-04-08 04:46:00,